Time,TemperatureF,DewpointF,PressureIn,WindDirection,WindDirectionDegrees,WindSpeedMPH,WindSpeedGustMPH,Humidity,HourlyPrecipIn,Conditions,Clouds,dailyrainin,SoftwareType,DateUTC
2013-01-26 00:00:00,24.6,21.0,30.13,West,263,0.0,3.0,86,0.00,RA,,0.00,WeatherDisplay:10.37,2013-01-26 05:00:00,
2013-01-26 00:15:00,24.7,21.1,30.13,West,263,0.0,3.0,86,0.00,OVC,,0.00,WeatherDisplay:10.37,2013-01-26 05:15:00,
2013-01-26 00:30:00,24.7,21.1,30.12,West,263,1.0,3.0,86,0.00,OVC,,0.00,WeatherDisplay:10.37,2013-01-26 05:30:00,
2013-01-26 00:45:00,24.7,21.4,30.12,West,263,0.0,4.0,87,0.00,OVC,,0.00,WeatherDisplay:10.37,2013-01-26 05:45:00,
2013-01-26 01:00:00,24.7,21.1,30.11,West,263,0.0,3.0,86,0.00,OVC,,0.00,WeatherDisplay:10.37,2013-01-26 06:00:00,
2013-01-26 01:15:00,24.8,21.5,30.11,West,267,1.0,4.0,87,0.00,OVC,,0.00,WeatherDisplay:10.37,2013-01-26 06:15:00,
2013-01-26 01:30:00,24.8,21.5,30.11,West,271,0.0,3.0,87,0.00,OVC,,0.00,WeatherDisplay:10.37,2013-01-26 06:30:00,
2013-01-26 01:45:00,24.9,21.5,30.12,West,271,1.0,3.0,87,0.00,OVC,,0.00,WeatherDisplay:10.37,2013-01-26 06:45:00,
2013-01-26 02:00:00,24.9,21.6,30.12,West,271,0.0,3.0,87,0.00,OVC,,0.00,WeatherDisplay:10.37,2013-01-26 07:00:00,
2013-01-26 02:15:00,24.9,21.8,30.12,West,273,1.0,5.0,88,0.00,OVC,,0.00,WeatherDisplay:10.37,2013-01-26 07:15:00,
2013-01-26 02:30:00,24.9,21.8,30.12,West,273,0.0,4.0,88,0.00,OVC,,0.00,WeatherDisplay:10.37,2013-01-26 07:30:00,
2013-01-26 02:45:00,25.0,21.9,30.11,West,273,1.0,4.0,88,0.00,OVC,,0.00,WeatherDisplay:10.37,2013-01-26 07:45:00,
2013-01-26 03:00:00,24.9,21.8,30.11,NW,306,1.0,6.0,88,0.00,OVC,,0.00,WeatherDisplay:10.37,2013-01-26 08:00:00,
2013-01-26 03:15:00,24.8,21.8,30.11,NW,305,0.0,6.0,88,0.00,OVC,,0.00,WeatherDisplay:10.37,2013-01-26 08:15:00,
2013-01-26 03:30:00,24.7,21.7,30.11,NW,307,0.0,4.0,88,0.00,OVC,,0.00,WeatherDisplay:10.37,2013-01-26 08:30:00,
2013-01-26 03:45:00,24.7,21.6,30.11,NW,307,1.0,4.0,88,0.00,OVC,,0.00,WeatherDisplay:10.37,2013-01-26 08:45:00,
2013-01-26 04:00:00,24.6,21.6,30.11,NW,307,0.0,4.0,88,0.00,OVC,,0.00,WeatherDisplay:10.37,2013-01-26 09:00:00,
2013-01-26 04:15:00,24.5,21.5,30.11,NW,307,0.0,2.0,88,0.00,OVC,,0.00,WeatherDisplay:10.37,2013-01-26 09:15:00,
2013-01-26 04:30:00,24.4,21.4,30.11,NW,306,0.0,3.0,88,0.00,FEW,,0.00,WeatherDisplay:10.37,2013-01-26 09:30:00,
2013-01-26 04:45:00,24.3,21.3,30.11,NW,306,0.0,4.0,88,0.00,FEW,,0.00,WeatherDisplay:10.37,2013-01-26 09:45:00,
2013-01-26 05:00:00,24.3,21.3,30.11,NW,306,0.0,4.0,88,0.00,FEW,,0.00,WeatherDisplay:10.37,2013-01-26 10:00:00,
2013-01-26 05:15:00,24.2,21.2,30.11,NW,306,0.0,2.0,88,0.00,FEW,,0.00,WeatherDisplay:10.37,2013-01-26 10:15:00,
2013-01-26 05:30:00,24.0,21.0,30.12,NW,306,0.0,2.0,88,0.00,CLR,,0.00,WeatherDisplay:10.37,2013-01-26 10:30:00,
2013-01-26 05:45:00,23.8,20.8,30.13,NW,306,0.0,2.0,88,0.00,CLR,,0.00,WeatherDisplay:10.37,2013-01-26 10:45:00,
2013-01-26 06:00:00,23.6,20.6,30.13,NW,306,0.0,1.0,88,0.00,CLR,,0.00,WeatherDisplay:10.37,2013-01-26 11:00:00,
2013-01-26 06:15:00,23.1,20.1,30.13,NW,306,0.0,0.0,88,0.00,CLR,,0.00,WeatherDisplay:10.37,2013-01-26 11:15:00,
2013-01-26 06:30:00,22.7,19.4,30.14,NW,306,0.0,0.0,87,0.00,CLR,,0.00,WeatherDisplay:10.37,2013-01-26 11:30:00,
2013-01-26 06:45:00,22.9,19.9,30.15,NW,306,0.0,1.0,88,0.00,CLR,,0.00,WeatherDisplay:10.37,2013-01-26 11:45:00,
2013-01-26 07:00:00,22.9,19.9,30.15,NW,306,0.0,1.0,88,0.00,CLR,,0.00,WeatherDisplay:10.37,2013-01-26 12:00:00,
2013-01-26 07:15:00,22.8,19.8,30.17,NW,306,0.0,1.0,88,0.00,CLR,,0.00,WeatherDisplay:10.37,2013-01-26 12:15:00,
2013-01-26 07:30:00,22.6,19.6,30.18,NW,306,0.0,0.0,88,0.00,CLR,,0.00,WeatherDisplay:10.37,2013-01-26 12:30:00,
2013-01-26 07:45:00,22.6,19.6,30.18,NW,306,0.0,1.0,88,0.00,CLR,,0.00,WeatherDisplay:10.37,2013-01-26 12:45:00,
2013-01-26 08:00:00,22.9,19.9,30.19,NW,306,0.0,1.0,88,0.00,CLR,,0.00,WeatherDisplay:10.37,2013-01-26 13:00:00,
2013-01-26 08:15:00,23.2,20.2,30.19,NW,306,0.0,1.0,88,0.00,CLR,,0.00,WeatherDisplay:10.37,2013-01-26 13:15:00,
2013-01-26 08:30:00,23.3,20.3,30.20,NW,306,0.0,0.0,88,0.00,CLR,,0.00,WeatherDisplay:10.37,2013-01-26 13:30:00,
2013-01-26 08:45:00,23.5,20.7,30.20,NW,306,0.0,0.0,89,0.00,CLR,,0.00,WeatherDisplay:10.37,2013-01-26 13:45:00,
2013-01-26 09:00:00,23.9,21.1,30.21,NW,306,0.0,1.0,89,0.00,CLR,,0.00,WeatherDisplay:10.37,2013-01-26 14:00:00,
2013-01-26 09:15:00,24.3,21.5,30.22,NW,306,0.0,2.0,89,0.00,CLR,,0.00,WeatherDisplay:10.37,2013-01-26 14:15:00,
2013-01-26 09:30:00,24.7,21.9,30.22,NW,306,0.0,1.0,89,0.00,CLR,,0.00,WeatherDisplay:10.37,2013-01-26 14:30:00,
2013-01-26 09:45:00,25.2,22.4,30.23,NW,306,0.0,1.0,89,0.00,CLR,,0.00,WeatherDisplay:10.37,2013-01-26 14:45:00,
2013-01-26 10:00:00,25.8,23.3,30.24,NW,306,0.0,1.0,90,0.00,CLR,,0.00,WeatherDisplay:10.37,2013-01-26 15:00:00,
2013-01-26 10:15:00,26.6,24.1,30.24,NW,306,0.0,1.0,90,0.00,CLR,,0.00,WeatherDisplay:10.37,2013-01-26 15:15:00,
2013-01-26 10:30:00,27.0,24.5,30.25,NW,306,0.0,0.0,90,0.00,CLR,,0.00,WeatherDisplay:10.37,2013-01-26 15:30:00,
2013-01-26 10:45:00,27.5,25.0,30.26,NW,306,0.0,1.0,90,0.00,CLR,,0.00,WeatherDisplay:10.37,2013-01-26 15:45:00,
2013-01-26 11:00:00,28.1,25.5,30.25,NW,306,0.0,1.0,90,0.00,CLR,,0.00,WeatherDisplay:10.37,2013-01-26 16:00:00,
2013-01-26 11:15:00,28.8,26.2,30.25,NW,306,0.0,1.0,90,0.00,CLR,,0.00,WeatherDisplay:10.37,2013-01-26 16:15:00,
2013-01-26 11:30:00,29.7,27.1,30.25,NW,306,0.0,3.0,90,0.00,CLR,,0.00,WeatherDisplay:10.37,2013-01-26 16:30:00,
2013-01-26 11:45:00,30.5,27.9,30.25,NW,306,0.0,1.0,90,0.00,CLR,,0.00,WeatherDisplay:10.37,2013-01-26 16:45:00,
2013-01-26 12:00:00,30.9,28.0,30.25,NW,306,0.0,1.0,89,0.00,CLR,,0.00,WeatherDisplay:10.37,2013-01-26 17:00:00,
2013-01-26 12:15:00,31.3,28.4,30.25,NW,306,0.0,2.0,89,0.01,CLR,,0.01,WeatherDisplay:10.37,2013-01-26 17:15:00,
2013-01-26 12:30:00,31.7,28.6,30.24,NW,306,0.0,2.0,88,0.00,CLR,,0.01,WeatherDisplay:10.37,2013-01-26 17:30:00,
2013-01-26 12:45:00,32.2,29.0,30.24,NW,306,0.0,1.0,88,0.00,CLR,,0.01,WeatherDisplay:10.37,2013-01-26 17:45:00,
2013-01-26 13:00:00,32.4,29.2,30.23,NW,306,0.0,2.0,88,0.00,CLR,,0.01,WeatherDisplay:10.37,2013-01-26 18:00:00,
2013-01-26 13:15:00,32.9,29.7,30.22,NW,306,0.0,1.0,88,0.00,CLR,,0.01,WeatherDisplay:10.37,2013-01-26 18:15:00,
2013-01-26 13:30:00,33.6,30.7,30.22,NW,306,0.0,2.0,89,0.00,CLR,,0.01,WeatherDisplay:10.37,2013-01-26 18:30:00,
2013-01-26 13:45:00,33.8,30.9,30.22,NW,304,0.0,3.0,89,0.01,CLR,,0.02,WeatherDisplay:10.37,2013-01-26 18:45:00,
2013-01-26 14:00:00,34.0,30.9,30.22,WNW,303,1.0,3.0,88,0.01,RA,,0.03,WeatherDisplay:10.37,2013-01-26 19:00:00,
2013-01-26 14:15:00,34.0,30.8,30.23,SSE,154,2.0,4.0,88,0.00,CLR,,0.03,WeatherDisplay:10.37,2013-01-26 19:15:00,
2013-01-26 14:30:00,33.9,30.7,30.22,South,174,0.0,4.0,88,0.00,CLR,,0.03,WeatherDisplay:10.37,2013-01-26 19:30:00,
2013-01-26 14:45:00,34.1,30.9,30.22,South,174,0.0,2.0,88,0.00,CLR,,0.03,WeatherDisplay:10.37,2013-01-26 19:45:00,
2013-01-26 15:00:00,34.8,31.6,30.22,South,174,0.0,2.0,88,0.01,CLR,,0.04,WeatherDisplay:10.37,2013-01-26 20:00:00,
2013-01-26 15:15:00,35.3,32.1,30.23,South,174,1.0,2.0,88,0.00,CLR,,0.04,WeatherDisplay:10.37,2013-01-26 20:15:00,
2013-01-26 15:30:00,35.7,32.2,30.23,South,174,0.0,2.0,87,0.00,CLR,,0.04,WeatherDisplay:10.37,2013-01-26 20:30:00,
2013-01-26 15:45:00,36.2,32.4,30.23,South,174,0.0,4.0,86,0.00,CLR,,0.04,WeatherDisplay:10.37,2013-01-26 20:45:00,
2013-01-26 16:00:00,36.4,32.3,30.24,South,174,0.0,3.0,85,0.00,CLR,,0.04,WeatherDisplay:10.37,2013-01-26 21:00:00,
2013-01-26 16:15:00,36.6,32.5,30.24,South,174,1.0,2.0,85,0.00,CLR,,0.04,WeatherDisplay:10.37,2013-01-26 21:15:00,
2013-01-26 16:30:00,36.5,32.1,30.25,South,174,0.0,3.0,84,0.00,CLR,,0.04,WeatherDisplay:10.37,2013-01-26 21:30:00,
2013-01-26 16:45:00,36.4,32.0,30.25,South,174,0.0,1.0,84,0.00,CLR,,0.04,WeatherDisplay:10.37,2013-01-26 21:45:00,
2013-01-26 17:00:00,36.1,31.7,30.25,South,174,0.0,1.0,84,0.00,CLR,,0.04,WeatherDisplay:10.37,2013-01-26 22:00:00,
2013-01-26 17:15:00,35.7,31.3,30.25,South,174,0.0,1.0,84,0.00,CLR,,0.04,WeatherDisplay:10.37,2013-01-26 22:15:00,
2013-01-26 17:30:00,35.2,31.2,30.26,South,174,0.0,0.0,85,0.00,CLR,,0.04,WeatherDisplay:10.37,2013-01-26 22:30:00,
2013-01-26 17:45:00,34.7,30.7,30.27,South,174,0.0,0.0,85,0.00,CLR,,0.04,WeatherDisplay:10.37,2013-01-26 22:45:00,
2013-01-26 18:00:00,34.1,30.1,30.27,South,174,0.0,0.0,85,0.00,CLR,,0.04,WeatherDisplay:10.37,2013-01-26 23:00:00,
2013-01-26 18:15:00,33.4,29.4,30.28,South,174,0.0,0.0,85,0.00,CLR,,0.04,WeatherDisplay:10.37,2013-01-26 23:15:00,
2013-01-26 18:30:00,32.5,28.8,30.28,South,174,0.0,0.0,86,0.00,CLR,,0.04,WeatherDisplay:10.37,2013-01-26 23:30:00,
2013-01-26 18:45:00,31.8,28.1,30.28,South,174,0.0,0.0,86,0.00,CLR,,0.04,WeatherDisplay:10.37,2013-01-26 23:45:00,
2013-01-26 19:00:00,31.4,28.0,30.29,South,174,0.0,0.0,87,0.00,CLR,,0.04,WeatherDisplay:10.37,2013-01-27 00:00:00,
2013-01-26 19:15:00,31.0,27.6,30.29,South,174,0.0,0.0,87,0.00,CLR,,0.04,WeatherDisplay:10.37,2013-01-27 00:15:00,
2013-01-26 19:30:00,30.6,27.5,30.30,South,174,0.0,0.0,88,0.00,CLR,,0.04,WeatherDisplay:10.37,2013-01-27 00:30:00,
2013-01-26 19:45:00,30.2,27.1,30.30,South,174,0.0,1.0,88,0.00,CLR,,0.04,WeatherDisplay:10.37,2013-01-27 00:45:00,
2013-01-26 20:00:00,30.2,27.3,30.31,South,174,0.0,1.0,89,0.00,CLR,,0.04,WeatherDisplay:10.37,2013-01-27 01:00:00,
2013-01-26 20:15:00,29.9,26.8,30.31,South,174,0.0,1.0,88,0.00,CLR,,0.04,WeatherDisplay:10.37,2013-01-27 01:15:00,
2013-01-26 20:30:00,29.5,26.7,30.31,South,174,0.0,1.0,89,0.00,CLR,,0.04,WeatherDisplay:10.37,2013-01-27 01:30:00,
2013-01-26 20:45:00,29.1,26.0,30.32,South,174,0.0,0.0,88,0.00,CLR,,0.04,WeatherDisplay:10.37,2013-01-27 01:45:00,
2013-01-26 21:00:00,28.6,25.5,30.33,South,174,0.0,0.0,88,0.00,CLR,,0.04,WeatherDisplay:10.37,2013-01-27 02:00:00,
2013-01-26 21:15:00,28.3,25.5,30.33,South,174,0.0,1.0,89,0.00,CLR,,0.04,WeatherDisplay:10.37,2013-01-27 02:15:00,
2013-01-26 21:30:00,28.0,25.2,30.34,South,174,0.0,1.0,89,0.00,CLR,,0.04,WeatherDisplay:10.37,2013-01-27 02:30:00,
2013-01-26 21:45:00,27.8,25.0,30.35,South,174,0.0,0.0,89,0.00,CLR,,0.04,WeatherDisplay:10.37,2013-01-27 02:45:00,
2013-01-26 22:00:00,27.4,24.6,30.35,South,174,0.0,0.0,89,0.00,CLR,,0.04,WeatherDisplay:10.37,2013-01-27 03:00:00,
2013-01-26 22:15:00,26.9,24.1,30.36,South,174,0.0,1.0,89,0.00,CLR,,0.04,WeatherDisplay:10.37,2013-01-27 03:15:00,
2013-01-26 22:30:00,26.5,23.7,30.37,South,174,0.0,0.0,89,0.00,CLR,,0.04,WeatherDisplay:10.37,2013-01-27 03:30:00,
2013-01-26 22:45:00,26.3,23.5,30.37,North,3,0.0,3.0,89,0.00,CLR,,0.04,WeatherDisplay:10.37,2013-01-27 03:45:00,
2013-01-26 23:00:00,27.6,25.3,30.39,ENE,68,0.0,4.0,91,0.00,CLR,,0.04,WeatherDisplay:10.37,2013-01-27 04:00:00,
2013-01-26 23:15:00,27.3,24.8,30.39,ENE,68,1.0,3.0,90,0.00,CLR,,0.04,WeatherDisplay:10.37,2013-01-27 04:15:00,
2013-01-26 23:30:00,27.8,25.5,30.39,NE,50,1.0,5.0,91,0.00,CLR,,0.04,WeatherDisplay:10.37,2013-01-27 04:30:00,
2013-01-26 23:45:00,27.9,25.3,30.39,NNE,30,2.0,4.0,90,0.00,CLR,,0.04,WeatherDisplay:10.37,2013-01-27 04:45:00,